sensor_id;sensor_type;location;lat;lon;timestamp;pressure;altitude;pressure_sealevel;temperature;humidity
9899;BME280;4988;49.238;6.698;2023-01-29T00:00:47;100405.44;;;1.07;73.19
9899;BME280;4988;49.238;6.698;2023-01-29T00:03:12;100404.53;;;1.07;72.89
9899;BME280;4988;49.238;6.698;2023-01-29T00:05:37;100408.91;;;1.05;73.40
9899;BME280;4988;49.238;6.698;2023-01-29T00:08:02;100408.91;;;1.06;73.67
9899;BME280;4988;49.238;6.698;2023-01-29T00:10:28;100408.09;;;1.10;73.65
9899;BME280;4988;49.238;6.698;2023-01-29T00:12:53;100409.84;;;1.10;73.51
9899;BME280;4988;49.238;6.698;2023-01-29T00:15:19;100406.34;;;1.11;72.66
9899;BME280;4988;49.238;6.698;2023-01-29T00:17:44;100409.00;;;1.14;72.58
9899;BME280;4988;49.238;6.698;2023-01-29T00:20:10;100401.06;;;1.08;73.17
9899;BME280;4988;49.238;6.698;2023-01-29T00:22:35;100399.28;;;1.04;72.76
9899;BME280;4988;49.238;6.698;2023-01-29T00:25:01;100394.91;;;1.06;73.04
9899;BME280;4988;49.238;6.698;2023-01-29T00:27:26;100397.53;;;1.06;72.66
9899;BME280;4988;49.238;6.698;2023-01-29T00:29:51;100401.00;;;1.03;73.04
9899;BME280;4988;49.238;6.698;2023-01-29T00:32:33;100400.03;;;0.96;73.54
9899;BME280;4988;49.238;6.698;2023-01-29T00:34:58;100387.78;;;0.94;74.39
9899;BME280;4988;49.238;6.698;2023-01-29T00:37:23;100397.41;;;0.96;74.40
9899;BME280;4988;49.238;6.698;2023-01-29T00:39:49;100387.84;;;0.99;74.75
9899;BME280;4988;49.238;6.698;2023-01-29T00:42:14;100390.41;;;0.95;75.25
9899;BME280;4988;49.238;6.698;2023-01-29T00:44:58;100383.41;;;0.94;74.98
9899;BME280;4988;49.238;6.698;2023-01-29T00:47:23;100385.09;;;0.92;74.97
9899;BME280;4988;49.238;6.698;2023-01-29T00:49:59;100383.47;;;0.98;74.73
9899;BME280;4988;49.238;6.698;2023-01-29T00:52:24;100387.84;;;1.00;74.70
9899;BME280;4988;49.238;6.698;2023-01-29T00:54:51;100385.03;;;0.86;73.95
9899;BME280;4988;49.238;6.698;2023-01-29T00:57:16;100391.19;;;0.88;73.61
9899;BME280;4988;49.238;6.698;2023-01-29T00:59:42;100381.44;;;0.76;74.06
9899;BME280;4988;49.238;6.698;2023-01-29T01:02:07;100386.72;;;0.81;72.93
9899;BME280;4988;49.238;6.698;2023-01-29T01:05:12;100391.94;;;0.81;72.63
9899;BME280;4988;49.238;6.698;2023-01-29T01:07:48;100401.47;;;0.73;73.10
9899;BME280;4988;49.238;6.698;2023-01-29T01:10:17;100397.09;;;0.72;72.76
9899;BME280;4988;49.238;6.698;2023-01-29T01:12:58;100404.13;;;0.76;73.57
9899;BME280;4988;49.238;6.698;2023-01-29T01:15:26;100402.34;;;0.75;73.95
9899;BME280;4988;49.238;6.698;2023-01-29T01:17:58;100402.25;;;0.69;74.47
9899;BME280;4988;49.238;6.698;2023-01-29T01:20:25;100409.28;;;0.70;74.88
9899;BME280;4988;49.238;6.698;2023-01-29T01:22:52;100408.44;;;0.74;74.54
9899;BME280;4988;49.238;6.698;2023-01-29T01:25:18;100409.38;;;0.77;74.66
9899;BME280;4988;49.238;6.698;2023-01-29T01:27:44;100418.16;;;0.81;74.86
9899;BME280;4988;49.238;6.698;2023-01-29T01:30:11;100415.59;;;0.84;74.44
9899;BME280;4988;49.238;6.698;2023-01-29T01:32:37;100407.81;;;0.89;74.16
9899;BME280;4988;49.238;6.698;2023-01-29T01:35:03;100398.97;;;0.82;73.94
9899;BME280;4988;49.238;6.698;2023-01-29T01:37:29;100405.06;;;0.81;74.57
9899;BME280;4988;49.238;6.698;2023-01-29T01:39:54;100405.91;;;0.78;74.97
9899;BME280;4988;49.238;6.698;2023-01-29T01:42:31;100405.09;;;0.83;74.48
9899;BME280;4988;49.238;6.698;2023-01-29T01:45:02;100401.56;;;0.79;75.14
9899;BME280;4988;49.238;6.698;2023-01-29T01:47:39;100412.91;;;0.78;75.63
9899;BME280;4988;49.238;6.698;2023-01-29T01:50:19;100405.91;;;0.80;75.52
9899;BME280;4988;49.238;6.698;2023-01-29T01:52:48;100403.28;;;0.80;76.02
9899;BME280;4988;49.238;6.698;2023-01-29T01:55:18;100392.69;;;0.71;76.72
9899;BME280;4988;49.238;6.698;2023-01-29T01:57:47;100388.31;;;0.70;77.25
9899;BME280;4988;49.238;6.698;2023-01-29T02:00:17;100383.03;;;0.67;77.30
9899;BME280;4988;49.238;6.698;2023-01-29T02:02:45;100371.66;;;0.64;77.61
9899;BME280;4988;49.238;6.698;2023-01-29T02:05:31;100378.69;;;0.70;77.20
9899;BME280;4988;49.238;6.698;2023-01-29T02:08:24;100372.59;;;0.71;77.78
9899;BME280;4988;49.238;6.698;2023-01-29T02:11:11;100375.13;;;0.63;77.44
9899;BME280;4988;49.238;6.698;2023-01-29T02:13:37;100375.97;;;0.62;77.38
9899;BME280;4988;49.238;6.698;2023-01-29T02:16:02;100380.25;;;0.56;77.70
9899;BME280;4988;49.238;6.698;2023-01-29T02:18:28;100384.47;;;0.44;78.42
9899;BME280;4988;49.238;6.698;2023-01-29T02:21:34;100387.00;;;0.40;79.67
9899;BME280;4988;49.238;6.698;2023-01-29T02:27:20;100381.59;;;0.30;79.75
9899;BME280;4988;49.238;6.698;2023-01-29T02:32:40;100389.38;;;0.24;80.41
9899;BME280;4988;49.238;6.698;2023-01-29T02:35:31;100386.66;;;0.20;79.84
9899;BME280;4988;49.238;6.698;2023-01-29T02:38:20;100377.03;;;0.17;79.58
9899;BME280;4988;49.238;6.698;2023-01-29T02:40:53;100369.88;;;0.07;79.91
9899;BME280;4988;49.238;6.698;2023-01-29T02:43:45;100370.72;;;0.04;80.51
9899;BME280;4988;49.238;6.698;2023-01-29T02:46:34;100367.09;;;-0.03;81.34
9899;BME280;4988;49.238;6.698;2023-01-29T02:49:09;100363.59;;;-0.05;82.24
9899;BME280;4988;49.238;6.698;2023-01-29T02:52:14;100358.22;;;-0.12;82.27
9899;BME280;4988;49.238;6.698;2023-01-29T02:54:44;100350.31;;;-0.15;82.76
9899;BME280;4988;49.238;6.698;2023-01-29T02:57:25;100358.91;;;-0.24;83.46
9899;BME280;4988;49.238;6.698;2023-01-29T03:00:02;100362.28;;;-0.30;84.37
9899;BME280;4988;49.238;6.698;2023-01-29T03:02:47;100357.03;;;-0.31;84.71
9899;BME280;4988;49.238;6.698;2023-01-29T03:05:23;100364.66;;;-0.42;85.27
9899;BME280;4988;49.238;6.698;2023-01-29T03:07:58;100366.34;;;-0.46;84.72
9899;BME280;4988;49.238;6.698;2023-01-29T03:10:34;100379.50;;;-0.43;84.49
9899;BME280;4988;49.238;6.698;2023-01-29T03:16:03;100385.38;;;-0.53;84.33
9899;BME280;4988;49.238;6.698;2023-01-29T03:18:36;100379.31;;;-0.52;84.28
9899;BME280;4988;49.238;6.698;2023-01-29T03:21:16;100383.56;;;-0.57;84.26
9899;BME280;4988;49.238;6.698;2023-01-29T03:24:03;100377.44;;;-0.59;85.60
9899;BME280;4988;49.238;6.698;2023-01-29T03:26:48;100372.97;;;-0.65;85.78
9899;BME280;4988;49.238;6.698;2023-01-29T03:29:33;100377.31;;;-0.66;85.86
9899;BME280;4988;49.238;6.698;2023-01-29T03:32:19;100373.72;;;-0.71;85.80
9899;BME280;4988;49.238;6.698;2023-01-29T03:34:48;100381.47;;;-0.75;86.56
9899;BME280;4988;49.238;6.698;2023-01-29T03:40:03;100391.81;;;-0.82;86.39
9899;BME280;4988;49.238;6.698;2023-01-29T03:43:04;100389.13;;;-0.86;86.77
9899;BME280;4988;49.238;6.698;2023-01-29T03:53:48;100384.44;;;-1.01;87.50
9899;BME280;4988;49.238;6.698;2023-01-29T03:56:38;100380.00;;;-1.05;87.58
9899;BME280;4988;49.238;6.698;2023-01-29T04:01:59;100390.34;;;-1.10;87.06
9899;BME280;4988;49.238;6.698;2023-01-29T04:04:45;100386.75;;;-1.15;86.55
9899;BME280;4988;49.238;6.698;2023-01-29T04:07:16;100389.25;;;-1.21;86.36
9899;BME280;4988;49.238;6.698;2023-01-29T04:09:47;100391.66;;;-1.31;86.99
9899;BME280;4988;49.238;6.698;2023-01-29T04:12:20;100388.03;;;-1.36;88.12
9899;BME280;4988;49.238;6.698;2023-01-29T04:14:49;100387.19;;;-1.35;88.49
9899;BME280;4988;49.238;6.698;2023-01-29T04:17:22;100394.19;;;-1.34;88.49
9899;BME280;4988;49.238;6.698;2023-01-29T04:19:49;100389.75;;;-1.38;88.40
9899;BME280;4988;49.238;6.698;2023-01-29T04:22:23;100386.22;;;-1.40;88.74
9899;BME280;4988;49.238;6.698;2023-01-29T04:24:51;100393.34;;;-1.33;88.13
9899;BME280;4988;49.238;6.698;2023-01-29T04:27:28;100382.91;;;-1.33;87.50
9899;BME280;4988;49.238;6.698;2023-01-29T04:33:02;100380.91;;;-1.43;87.59
9899;BME280;4988;49.238;6.698;2023-01-29T04:40:53;100379.06;;;-1.49;89.30
9899;BME280;4988;49.238;6.698;2023-01-29T04:46:15;100370.31;;;-1.49;88.11
9899;BME280;4988;49.238;6.698;2023-01-29T04:51:34;100390.09;;;-1.60;88.49
9899;BME280;4988;49.238;6.698;2023-01-29T04:56:50;100384.75;;;-1.65;89.14
9899;BME280;4988;49.238;6.698;2023-01-29T04:59:36;100386.66;;;-1.58;88.21
9899;BME280;4988;49.238;6.698;2023-01-29T05:02:05;100390.75;;;-1.69;89.32
9899;BME280;4988;49.238;6.698;2023-01-29T05:04:34;100385.53;;;-1.69;90.37
9899;BME280;4988;49.238;6.698;2023-01-29T05:07:07;100384.66;;;-1.70;89.31
9899;BME280;4988;49.238;6.698;2023-01-29T05:09:35;100398.53;;;-1.72;90.38
9899;BME280;4988;49.238;6.698;2023-01-29T05:12:05;100396.66;;;-1.76;90.10
9899;BME280;4988;49.238;6.698;2023-01-29T05:14:32;100397.41;;;-1.82;90.21
9899;BME280;4988;49.238;6.698;2023-01-29T05:17:03;100395.72;;;-1.80;90.74
9899;BME280;4988;49.238;6.698;2023-01-29T05:19:30;100395.53;;;-1.88;91.55
9899;BME280;4988;49.238;6.698;2023-01-29T05:21:55;100390.44;;;-1.83;91.06
9899;BME280;4988;49.238;6.698;2023-01-29T05:24:23;100377.22;;;-1.89;89.82
9899;BME280;4988;49.238;6.698;2023-01-29T05:26:50;100373.69;;;-1.91;89.66
9899;BME280;4988;49.238;6.698;2023-01-29T05:29:35;100372.59;;;-2.01;90.38
9899;BME280;4988;49.238;6.698;2023-01-29T05:32:01;100378.78;;;-1.96;90.54
9899;BME280;4988;49.238;6.698;2023-01-29T05:34:28;100385.50;;;-2.06;91.78
9899;BME280;4988;49.238;6.698;2023-01-29T05:36:53;100382.03;;;-2.06;91.30
9899;BME280;4988;49.238;6.698;2023-01-29T05:39:19;100389.72;;;-2.11;92.04
9899;BME280;4988;49.238;6.698;2023-01-29T05:41:44;100393.44;;;-2.03;90.74
9899;BME280;4988;49.238;6.698;2023-01-29T05:44:10;100393.56;;;-1.97;90.18
9899;BME280;4988;49.238;6.698;2023-01-29T05:46:36;100401.22;;;-2.04;88.84
9899;BME280;4988;49.238;6.698;2023-01-29T05:49:02;100398.56;;;-2.06;89.87
9899;BME280;4988;49.238;6.698;2023-01-29T05:51:28;100382.91;;;-2.06;89.75
9899;BME280;4988;49.238;6.698;2023-01-29T05:53:53;100392.38;;;-2.10;89.81
9899;BME280;4988;49.238;6.698;2023-01-29T05:56:18;100375.69;;;-2.16;90.60
9899;BME280;4988;49.238;6.698;2023-01-29T05:58:44;100382.53;;;-2.21;91.18
9899;BME280;4988;49.238;6.698;2023-01-29T06:01:12;100380.81;;;-2.19;91.13
9899;BME280;4988;49.238;6.698;2023-01-29T06:03:37;100384.34;;;-2.17;90.86
9899;BME280;4988;49.238;6.698;2023-01-29T06:06:03;100391.16;;;-2.24;91.31
9899;BME280;4988;49.238;6.698;2023-01-29T06:08:28;100390.25;;;-2.24;92.06
9899;BME280;4988;49.238;6.698;2023-01-29T06:10:54;100392.97;;;-2.21;91.46
9899;BME280;4988;49.238;6.698;2023-01-29T06:13:19;100395.53;;;-2.23;90.71
9899;BME280;4988;49.238;6.698;2023-01-29T06:15:45;100386.84;;;-2.22;92.44
9899;BME280;4988;49.238;6.698;2023-01-29T06:18:10;100386.03;;;-2.19;91.50
9899;BME280;4988;49.238;6.698;2023-01-29T06:20:36;100378.06;;;-2.26;91.32
9899;BME280;4988;49.238;6.698;2023-01-29T06:23:01;100382.38;;;-2.28;91.62
9899;BME280;4988;49.238;6.698;2023-01-29T06:25:26;100383.97;;;-2.33;91.88
9899;BME280;4988;49.238;6.698;2023-01-29T06:27:52;100392.78;;;-2.28;92.23
9899;BME280;4988;49.238;6.698;2023-01-29T06:30:17;100389.81;;;-2.42;92.17
9899;BME280;4988;49.238;6.698;2023-01-29T06:32:42;100392.41;;;-2.42;92.86
9899;BME280;4988;49.238;6.698;2023-01-29T06:35:08;100387.31;;;-2.37;92.37
9899;BME280;4988;49.238;6.698;2023-01-29T06:37:34;100393.34;;;-2.39;93.07
9899;BME280;4988;49.238;6.698;2023-01-29T06:40:00;100391.53;;;-2.42;93.45
9899;BME280;4988;49.238;6.698;2023-01-29T06:42:25;100395.09;;;-2.40;93.50
9899;BME280;4988;49.238;6.698;2023-01-29T06:44:53;100389.06;;;-2.37;92.70
9899;BME280;4988;49.238;6.698;2023-01-29T06:47:19;100394.25;;;-2.39;92.64
9899;BME280;4988;49.238;6.698;2023-01-29T06:49:44;100403.13;;;-2.31;91.57
9899;BME280;4988;49.238;6.698;2023-01-29T06:52:09;100407.47;;;-2.31;90.90
9899;BME280;4988;49.238;6.698;2023-01-29T06:54:34;100393.47;;;-2.35;92.19
9899;BME280;4988;49.238;6.698;2023-01-29T06:57:00;100391.66;;;-2.37;92.53
9899;BME280;4988;49.238;6.698;2023-01-29T06:59:25;100385.50;;;-2.41;92.21
9899;BME280;4988;49.238;6.698;2023-01-29T07:01:50;100386.94;;;-2.52;92.70
9899;BME280;4988;49.238;6.698;2023-01-29T07:04:16;100394.28;;;-2.69;92.97
9899;BME280;4988;49.238;6.698;2023-01-29T07:06:41;100401.13;;;-2.73;93.39
9899;BME280;4988;49.238;6.698;2023-01-29T07:09:06;100410.78;;;-2.69;92.72
9899;BME280;4988;49.238;6.698;2023-01-29T07:11:33;100400.03;;;-2.81;93.69
9899;BME280;4988;49.238;6.698;2023-01-29T07:13:59;100392.13;;;-2.84;94.13
9899;BME280;4988;49.238;6.698;2023-01-29T07:16:24;100396.41;;;-2.86;94.50
9899;BME280;4988;49.238;6.698;2023-01-29T07:18:50;100404.13;;;-2.89;94.89
9899;BME280;4988;49.238;6.698;2023-01-29T07:21:16;100407.09;;;-2.77;94.58
9899;BME280;4988;49.238;6.698;2023-01-29T07:23:42;100410.63;;;-2.75;95.48
9899;BME280;4988;49.238;6.698;2023-01-29T07:26:07;100421.03;;;-2.75;95.46
9899;BME280;4988;49.238;6.698;2023-01-29T07:28:37;100422.97;;;-2.68;95.96
9899;BME280;4988;49.238;6.698;2023-01-29T07:31:04;100424.81;;;-2.64;95.40
9899;BME280;4988;49.238;6.698;2023-01-29T07:33:29;100417.06;;;-2.62;93.70
9899;BME280;4988;49.238;6.698;2023-01-29T07:35:55;100410.97;;;-2.63;93.14
9899;BME280;4988;49.238;6.698;2023-01-29T07:38:20;100410.09;;;-2.63;93.49
9899;BME280;4988;49.238;6.698;2023-01-29T07:40:46;100400.50;;;-2.64;93.90
9899;BME280;4988;49.238;6.698;2023-01-29T07:43:11;100395.31;;;-2.63;93.69
9899;BME280;4988;49.238;6.698;2023-01-29T07:45:38;100403.31;;;-2.56;93.90
9899;BME280;4988;49.238;6.698;2023-01-29T07:48:05;100409.19;;;-2.64;93.96
9899;BME280;4988;49.238;6.698;2023-01-29T07:50:32;100402.97;;;-2.69;94.70
9899;BME280;4988;49.238;6.698;2023-01-29T07:52:57;100403.91;;;-2.67;94.44
9899;BME280;4988;49.238;6.698;2023-01-29T07:55:23;100411.91;;;-2.61;94.37
9899;BME280;4988;49.238;6.698;2023-01-29T07:57:59;100413.56;;;-2.63;94.59
9899;BME280;4988;49.238;6.698;2023-01-29T08:00:26;100413.69;;;-2.58;94.94
9899;BME280;4988;49.238;6.698;2023-01-29T08:02:51;100418.03;;;-2.59;94.55
9899;BME280;4988;49.238;6.698;2023-01-29T08:05:17;100424.22;;;-2.55;94.73
9899;BME280;4988;49.238;6.698;2023-01-29T08:07:42;100441.69;;;-2.52;94.89
9899;BME280;4988;49.238;6.698;2023-01-29T08:10:08;100446.38;;;-2.39;93.73
9899;BME280;4988;49.238;6.698;2023-01-29T08:12:33;100448.94;;;-2.40;93.18
9899;BME280;4988;49.238;6.698;2023-01-29T08:14:59;100452.47;;;-2.38;93.87
9899;BME280;4988;49.238;6.698;2023-01-29T08:17:24;100448.91;;;-2.42;94.77
9899;BME280;4988;49.238;6.698;2023-01-29T08:19:49;100452.50;;;-2.37;95.44
9899;BME280;4988;49.238;6.698;2023-01-29T08:22:15;100456.88;;;-2.36;95.91
9899;BME280;4988;49.238;6.698;2023-01-29T08:24:41;100460.34;;;-2.37;96.35
9899;BME280;4988;49.238;6.698;2023-01-29T08:27:06;100464.81;;;-2.33;96.44
9899;BME280;4988;49.238;6.698;2023-01-29T08:29:31;100457.88;;;-2.32;96.71
9899;BME280;4988;49.238;6.698;2023-01-29T08:31:56;100461.50;;;-2.26;96.64
9899;BME280;4988;49.238;6.698;2023-01-29T08:34:22;100460.84;;;-2.18;96.47
9899;BME280;4988;49.238;6.698;2023-01-29T08:36:47;100454.47;;;-2.28;95.51
9899;BME280;4988;49.238;6.698;2023-01-29T08:39:13;100450.16;;;-2.28;95.45
9899;BME280;4988;49.238;6.698;2023-01-29T08:41:38;100435.75;;;-2.13;95.84
9899;BME280;4988;49.238;6.698;2023-01-29T08:44:03;100434.75;;;-2.18;95.29
9899;BME280;4988;49.238;6.698;2023-01-29T08:46:30;100434.91;;;-2.12;95.64
9899;BME280;4988;49.238;6.698;2023-01-29T08:48:55;100441.25;;;-2.02;95.30
9899;BME280;4988;49.238;6.698;2023-01-29T08:51:21;100451.03;;;-1.94;95.77
9899;BME280;4988;49.238;6.698;2023-01-29T08:54:08;100447.31;;;-1.70;95.16
9899;BME280;4988;49.238;6.698;2023-01-29T08:56:34;100452.72;;;-1.62;94.65
9899;BME280;4988;49.238;6.698;2023-01-29T08:58:59;100457.66;;;-1.73;93.57
9899;BME280;4988;49.238;6.698;2023-01-29T09:01:24;100440.38;;;-1.68;93.30
9899;BME280;4988;49.238;6.698;2023-01-29T09:03:50;100430.00;;;-1.66;93.51
9899;BME280;4988;49.238;6.698;2023-01-29T09:06:16;100425.78;;;-1.61;93.62
9899;BME280;4988;49.238;6.698;2023-01-29T09:08:41;100420.81;;;-1.50;92.98
9899;BME280;4988;49.238;6.698;2023-01-29T09:11:07;100414.00;;;-1.42;93.39
9899;BME280;4988;49.238;6.698;2023-01-29T09:13:33;100420.22;;;-1.37;92.50
9899;BME280;4988;49.238;6.698;2023-01-29T09:16:00;100420.31;;;-1.34;92.28
9899;BME280;4988;49.238;6.698;2023-01-29T09:18:26;100417.00;;;-1.26;91.74
9899;BME280;4988;49.238;6.698;2023-01-29T09:20:52;100423.41;;;-1.12;90.90
9899;BME280;4988;49.238;6.698;2023-01-29T09:23:18;100423.34;;;-1.15;89.79
9899;BME280;4988;49.238;6.698;2023-01-29T09:25:43;100422.88;;;-0.95;88.86
9899;BME280;4988;49.238;6.698;2023-01-29T09:28:09;100427.13;;;-1.01;88.20
9899;BME280;4988;49.238;6.698;2023-01-29T09:30:34;100423.00;;;-0.91;87.56
9899;BME280;4988;49.238;6.698;2023-01-29T09:33:05;100434.19;;;-0.97;87.29
9899;BME280;4988;49.238;6.698;2023-01-29T09:35:31;100434.28;;;-0.93;86.66
9899;BME280;4988;49.238;6.698;2023-01-29T09:37:56;100435.34;;;-0.84;86.94
9899;BME280;4988;49.238;6.698;2023-01-29T09:40:44;100441.56;;;-0.77;85.36
9899;BME280;4988;49.238;6.698;2023-01-29T09:43:16;100437.16;;;-0.79;84.39
9899;BME280;4988;49.238;6.698;2023-01-29T09:45:51;100441.78;;;-0.68;84.81
9899;BME280;4988;49.238;6.698;2023-01-29T09:48:19;100439.22;;;-0.65;84.00
9899;BME280;4988;49.238;6.698;2023-01-29T09:50:48;100432.78;;;-0.38;84.74
9899;BME280;4988;49.238;6.698;2023-01-29T09:53:35;100427.81;;;-0.22;83.67
9899;BME280;4988;49.238;6.698;2023-01-29T09:56:20;100417.56;;;-0.11;83.18
9899;BME280;4988;49.238;6.698;2023-01-29T09:58:46;100417.00;;;0.07;81.63
9899;BME280;4988;49.238;6.698;2023-01-29T10:12:28;100436.59;;;-0.20;80.41
9899;BME280;4988;49.238;6.698;2023-01-29T10:21:03;100429.91;;;-0.04;80.06
9899;BME280;4988;49.238;6.698;2023-01-29T10:23:45;100428.41;;;0.09;78.90
9899;BME280;4988;49.238;6.698;2023-01-29T10:26:12;100430.00;;;0.01;79.26
9899;BME280;4988;49.238;6.698;2023-01-29T10:28:59;100422.19;;;0.04;79.82
9899;BME280;4988;49.238;6.698;2023-01-29T10:31:31;100412.72;;;0.12;79.17
9899;BME280;4988;49.238;6.698;2023-01-29T10:36:39;100424.88;;;0.07;79.96
9899;BME280;4988;49.238;6.698;2023-01-29T10:39:20;100420.44;;;0.03;79.88
9899;BME280;4988;49.238;6.698;2023-01-29T10:58:35;100403.84;;;0.04;80.34
9899;BME280;4988;49.238;6.698;2023-01-29T11:01:02;100406.53;;;0.05;80.37
9899;BME280;4988;49.238;6.698;2023-01-29T11:03:29;100402.16;;;0.07;81.38
9899;BME280;4988;49.238;6.698;2023-01-29T11:05:58;100393.38;;;0.04;81.34
9899;BME280;4988;49.238;6.698;2023-01-29T11:08:55;100393.47;;;0.10;80.31
9899;BME280;4988;49.238;6.698;2023-01-29T11:11:18;100387.41;;;0.11;80.91
9899;BME280;4988;49.238;6.698;2023-01-29T11:13:52;100382.97;;;0.05;80.75
9899;BME280;4988;49.238;6.698;2023-01-29T11:16:27;100377.78;;;0.10;80.11
9899;BME280;4988;49.238;6.698;2023-01-29T11:19:10;100381.44;;;0.20;80.03
9899;BME280;4988;49.238;6.698;2023-01-29T11:21:59;100364.09;;;0.25;81.01
9899;BME280;4988;49.238;6.698;2023-01-29T11:24:25;100361.47;;;0.26;81.40
9899;BME280;4988;49.238;6.698;2023-01-29T11:26:53;100351.22;;;0.42;79.15
9899;BME280;4988;49.238;6.698;2023-01-29T11:29:39;100345.88;;;0.36;78.76
9899;BME280;4988;49.238;6.698;2023-01-29T11:32:11;100342.38;;;0.34;79.78
9899;BME280;4988;49.238;6.698;2023-01-29T11:37:42;100343.97;;;0.22;78.65
9899;BME280;4988;49.238;6.698;2023-01-29T11:40:34;100330.00;;;0.23;79.10
9899;BME280;4988;49.238;6.698;2023-01-29T11:43:22;100322.03;;;0.17;79.28
9899;BME280;4988;49.238;6.698;2023-01-29T11:46:03;100322.19;;;0.25;78.70
9899;BME280;4988;49.238;6.698;2023-01-29T11:48:42;100317.53;;;0.07;80.24
9899;BME280;4988;49.238;6.698;2023-01-29T11:51:11;100311.72;;;0.25;80.23
9899;BME280;4988;49.238;6.698;2023-01-29T11:53:57;100302.19;;;0.31;79.84
9899;BME280;4988;49.238;6.698;2023-01-29T11:56:34;100295.16;;;0.27;79.15
9899;BME280;4988;49.238;6.698;2023-01-29T11:59:04;100290.03;;;0.37;79.26
9899;BME280;4988;49.238;6.698;2023-01-29T12:01:34;100288.41;;;0.45;79.67
9899;BME280;4988;49.238;6.698;2023-01-29T12:04:01;100282.31;;;0.44;78.94
9899;BME280;4988;49.238;6.698;2023-01-29T12:06:36;100277.16;;;0.51;78.66
9899;BME280;4988;49.238;6.698;2023-01-29T12:09:09;100271.91;;;0.52;78.87
9899;BME280;4988;49.238;6.698;2023-01-29T12:11:38;100270.91;;;0.41;79.08
9899;BME280;4988;49.238;6.698;2023-01-29T12:14:07;100276.06;;;0.35;79.72
9899;BME280;4988;49.238;6.698;2023-01-29T12:17:09;100274.59;;;0.57;78.22
9899;BME280;4988;49.238;6.698;2023-01-29T12:19:58;100271.16;;;0.62;78.12
9899;BME280;4988;49.238;6.698;2023-01-29T12:23:00;100265.06;;;0.60;79.32
9899;BME280;4988;49.238;6.698;2023-01-29T12:26:14;100264.16;;;0.61;79.23
9899;BME280;4988;49.238;6.698;2023-01-29T12:31:50;100264.16;;;0.61;78.09
9899;BME280;4988;49.238;6.698;2023-01-29T12:34:32;100268.38;;;0.50;78.12
9899;BME280;4988;49.238;6.698;2023-01-29T12:39:28;100261.34;;;0.44;77.97
9899;BME280;4988;49.238;6.698;2023-01-29T12:42:04;100262.16;;;0.42;78.84
9899;BME280;4988;49.238;6.698;2023-01-29T12:44:37;100264.81;;;0.43;80.00
9899;BME280;4988;49.238;6.698;2023-01-29T12:47:12;100260.38;;;0.38;80.67
9899;BME280;4988;49.238;6.698;2023-01-29T12:49:40;100255.88;;;0.27;80.40
9899;BME280;4988;49.238;6.698;2023-01-29T12:52:22;100256.72;;;0.26;80.97
9899;BME280;4988;49.238;6.698;2023-01-29T12:58:04;100239.44;;;0.39;80.68
9899;BME280;4988;49.238;6.698;2023-01-29T13:00:43;100237.56;;;0.27;81.30
9899;BME280;4988;49.238;6.698;2023-01-29T13:03:54;100243.72;;;0.34;80.93
9899;BME280;4988;49.238;6.698;2023-01-29T13:06:33;100246.25;;;0.26;80.96
9899;BME280;4988;49.238;6.698;2023-01-29T13:09:03;100242.72;;;0.23;80.18
9899;BME280;4988;49.238;6.698;2023-01-29T13:14:56;100229.63;;;0.23;80.72
9899;BME280;4988;49.238;6.698;2023-01-29T13:17:40;100228.53;;;0.07;81.30
9899;BME280;4988;49.238;6.698;2023-01-29T13:20:41;100223.38;;;0.11;81.41
9899;BME280;4988;49.238;6.698;2023-01-29T13:23:37;100212.66;;;-0.04;82.07
9899;BME280;4988;49.238;6.698;2023-01-29T13:26:16;100210.88;;;-0.07;82.05
9899;BME280;4988;49.238;6.698;2023-01-29T13:29:20;100212.00;;;0.11;81.55
9899;BME280;4988;49.238;6.698;2023-01-29T13:31:47;100205.06;;;0.13;82.71
9899;BME280;4988;49.238;6.698;2023-01-29T13:34:31;100198.19;;;0.21;83.16
9899;BME280;4988;49.238;6.698;2023-01-29T13:37:02;100201.03;;;0.40;81.95
9899;BME280;4988;49.238;6.698;2023-01-29T13:39:36;100195.81;;;0.40;81.38
9899;BME280;4988;49.238;6.698;2023-01-29T13:44:47;100193.22;;;0.43;80.63
9899;BME280;4988;49.238;6.698;2023-01-29T13:47:21;100199.38;;;0.48;81.38
9899;BME280;4988;49.238;6.698;2023-01-29T13:50:09;100202.13;;;0.57;80.24
9899;BME280;4988;49.238;6.698;2023-01-29T13:53:04;100202.19;;;0.63;80.29
9899;BME280;4988;49.238;6.698;2023-01-29T13:55:32;100208.28;;;0.64;80.04
9899;BME280;4988;49.238;6.698;2023-01-29T14:00:57;100207.28;;;0.50;81.60
9899;BME280;4988;49.238;6.698;2023-01-29T14:13:37;100199.16;;;0.29;81.98
9899;BME280;4988;49.238;6.698;2023-01-29T14:18:28;100189.66;;;0.36;82.17
9899;BME280;4988;49.238;6.698;2023-01-29T14:21:04;100192.34;;;0.44;82.24
9899;BME280;4988;49.238;6.698;2023-01-29T14:28:43;100188.78;;;0.37;81.47
9899;BME280;4988;49.238;6.698;2023-01-29T14:31:27;100181.81;;;0.38;81.17
9899;BME280;4988;49.238;6.698;2023-01-29T14:33:59;100178.25;;;0.31;81.24
9899;BME280;4988;49.238;6.698;2023-01-29T14:36:26;100179.97;;;0.30;81.40
9899;BME280;4988;49.238;6.698;2023-01-29T14:38:52;100188.66;;;0.29;81.70
9899;BME280;4988;49.238;6.698;2023-01-29T14:41:28;100184.34;;;0.31;81.53
9899;BME280;4988;49.238;6.698;2023-01-29T14:46:58;100182.63;;;0.34;81.90
9899;BME280;4988;49.238;6.698;2023-01-29T14:52:15;100176.47;;;0.28;81.71
9899;BME280;4988;49.238;6.698;2023-01-29T14:54:41;100174.72;;;0.30;82.90
9899;BME280;4988;49.238;6.698;2023-01-29T14:57:11;100173.88;;;0.31;82.27
9899;BME280;4988;49.238;6.698;2023-01-29T15:00:00;100169.63;;;0.41;82.67
9899;BME280;4988;49.238;6.698;2023-01-29T15:02:39;100168.75;;;0.41;82.25
9899;BME280;4988;49.238;6.698;2023-01-29T15:05:10;100170.41;;;0.36;82.52
9899;BME280;4988;49.238;6.698;2023-01-29T15:07:47;100169.63;;;0.41;82.52
9899;BME280;4988;49.238;6.698;2023-01-29T15:13:02;100167.16;;;0.54;82.27
9899;BME280;4988;49.238;6.698;2023-01-29T15:16:01;100165.38;;;0.53;82.19
9899;BME280;4988;49.238;6.698;2023-01-29T15:18:39;100173.19;;;0.48;82.18
9899;BME280;4988;49.238;6.698;2023-01-29T15:21:16;100166.22;;;0.50;82.30
9899;BME280;4988;49.238;6.698;2023-01-29T15:23:44;100170.59;;;0.51;81.87
9899;BME280;4988;49.238;6.698;2023-01-29T15:26:21;100172.38;;;0.54;82.27
9899;BME280;4988;49.238;6.698;2023-01-29T15:28:56;100175.06;;;0.57;82.25
9899;BME280;4988;49.238;6.698;2023-01-29T15:31:21;100180.25;;;0.54;82.47
9899;BME280;4988;49.238;6.698;2023-01-29T15:33:50;100173.22;;;0.51;82.77
9899;BME280;4988;49.238;6.698;2023-01-29T15:36:23;100179.25;;;0.45;82.50
9899;BME280;4988;49.238;6.698;2023-01-29T15:39:14;100164.38;;;0.40;82.56
9899;BME280;4988;49.238;6.698;2023-01-29T15:41:42;100166.94;;;0.35;83.42
9899;BME280;4988;49.238;6.698;2023-01-29T15:44:13;100172.16;;;0.35;83.17
9899;BME280;4988;49.238;6.698;2023-01-29T15:46:42;100167.88;;;0.42;83.27